sensor_id;sensor_type;location;lat;lon;timestamp;P1;durP1;ratioP1;P2;durP2;ratioP2
48423;SDS011;34232;42.502;26.014;2022-12-18T00:00:05;2.53;;;2.20;;
48423;SDS011;34232;42.502;26.014;2022-12-18T00:02:31;3.00;;;2.28;;
48423;SDS011;34232;42.502;26.014;2022-12-18T00:04:59;3.50;;;2.97;;
48423;SDS011;34232;42.502;26.014;2022-12-18T00:07:24;4.47;;;1.90;;
48423;SDS011;34232;42.502;26.014;2022-12-18T00:09:50;8.20;;;3.23;;
48423;SDS011;34232;42.502;26.014;2022-12-18T00:12:15;4.77;;;2.83;;
48423;SDS011;34232;42.502;26.014;2022-12-18T00:14:41;4.97;;;2.77;;
48423;SDS011;34232;42.502;26.014;2022-12-18T00:17:08;3.90;;;2.78;;
48423;SDS011;34232;42.502;26.014;2022-12-18T00:19:33;2.87;;;2.07;;
48423;SDS011;34232;42.502;26.014;2022-12-18T00:22:02;3.97;;;2.42;;
48423;SDS011;34232;42.502;26.014;2022-12-18T00:24:27;3.60;;;2.03;;
48423;SDS011;34232;42.502;26.014;2022-12-18T00:26:53;2.67;;;2.37;;
48423;SDS011;34232;42.502;26.014;2022-12-18T00:29:18;4.70;;;2.27;;
48423;SDS011;34232;42.502;26.014;2022-12-18T00:31:44;1.63;;;1.30;;
48423;SDS011;34232;42.502;26.014;2022-12-18T00:34:10;1.33;;;1.07;;
48423;SDS011;34232;42.502;26.014;2022-12-18T00:36:37;4.43;;;2.28;;
48423;SDS011;34232;42.502;26.014;2022-12-18T00:39:04;2.97;;;1.40;;
48423;SDS011;34232;42.502;26.014;2022-12-18T00:41:30;2.88;;;1.55;;
48423;SDS011;34232;42.502;26.014;2022-12-18T00:44:15;2.30;;;1.42;;
48423;SDS011;34232;42.502;26.014;2022-12-18T00:46:42;2.13;;;1.63;;
48423;SDS011;34232;42.502;26.014;2022-12-18T00:49:08;2.88;;;1.70;;
48423;SDS011;34232;42.502;26.014;2022-12-18T00:51:34;2.63;;;1.83;;
48423;SDS011;34232;42.502;26.014;2022-12-18T00:54:00;4.53;;;2.43;;
48423;SDS011;34232;42.502;26.014;2022-12-18T00:56:26;3.13;;;1.33;;
48423;SDS011;34232;42.502;26.014;2022-12-18T00:58:51;2.43;;;1.87;;
48423;SDS011;34232;42.502;26.014;2022-12-18T01:01:17;2.27;;;1.77;;
48423;SDS011;34232;42.502;26.014;2022-12-18T01:03:42;2.23;;;1.50;;
48423;SDS011;34232;42.502;26.014;2022-12-18T01:06:10;2.75;;;1.63;;
48423;SDS011;34232;42.502;26.014;2022-12-18T01:08:37;2.05;;;1.17;;
48423;SDS011;34232;42.502;26.014;2022-12-18T01:11:07;3.50;;;2.58;;
48423;SDS011;34232;42.502;26.014;2022-12-18T01:13:34;3.78;;;1.70;;
48423;SDS011;34232;42.502;26.014;2022-12-18T01:15:59;4.43;;;1.87;;
48423;SDS011;34232;42.502;26.014;2022-12-18T01:18:25;3.63;;;1.83;;
48423;SDS011;34232;42.502;26.014;2022-12-18T01:20:51;3.38;;;2.40;;
48423;SDS011;34232;42.502;26.014;2022-12-18T01:23:16;15.23;;;3.63;;
48423;SDS011;34232;42.502;26.014;2022-12-18T01:25:42;3.10;;;1.73;;
48423;SDS011;34232;42.502;26.014;2022-12-18T01:28:07;1.57;;;1.07;;
48423;SDS011;34232;42.502;26.014;2022-12-18T01:30:33;3.50;;;1.90;;
48423;SDS011;34232;42.502;26.014;2022-12-18T01:32:58;2.00;;;1.80;;
48423;SDS011;34232;42.502;26.014;2022-12-18T01:35:24;4.13;;;2.40;;
48423;SDS011;34232;42.502;26.014;2022-12-18T01:37:49;3.27;;;1.93;;
48423;SDS011;34232;42.502;26.014;2022-12-18T01:40:19;2.42;;;2.00;;
48423;SDS011;34232;42.502;26.014;2022-12-18T01:42:44;1.90;;;1.20;;
48423;SDS011;34232;42.502;26.014;2022-12-18T01:47:49;2.10;;;1.52;;
48423;SDS011;34232;42.502;26.014;2022-12-18T01:55:31;5.95;;;3.80;;
48423;SDS011;34232;42.502;26.014;2022-12-18T01:58:02;5.85;;;4.05;;
48423;SDS011;34232;42.502;26.014;2022-12-18T02:00:34;7.85;;;5.07;;
48423;SDS011;34232;42.502;26.014;2022-12-18T02:03:00;6.93;;;5.05;;
48423;SDS011;34232;42.502;26.014;2022-12-18T02:10:48;9.00;;;6.13;;
48423;SDS011;34232;42.502;26.014;2022-12-18T02:18:51;5.38;;;3.95;;
48423;SDS011;34232;42.502;26.014;2022-12-18T02:24:17;5.15;;;3.33;;
48423;SDS011;34232;42.502;26.014;2022-12-18T02:26:59;4.95;;;2.75;;
48423;SDS011;34232;42.502;26.014;2022-12-18T02:29:49;4.43;;;2.97;;
48423;SDS011;34232;42.502;26.014;2022-12-18T02:32:18;3.38;;;2.20;;
48423;SDS011;34232;42.502;26.014;2022-12-18T02:34:57;2.30;;;2.08;;
48423;SDS011;34232;42.502;26.014;2022-12-18T02:37:26;2.47;;;1.63;;
48423;SDS011;34232;42.502;26.014;2022-12-18T02:39:53;4.63;;;2.40;;
48423;SDS011;34232;42.502;26.014;2022-12-18T02:42:21;2.53;;;1.98;;
48423;SDS011;34232;42.502;26.014;2022-12-18T02:44:48;3.67;;;1.77;;
48423;SDS011;34232;42.502;26.014;2022-12-18T02:47:19;3.10;;;2.35;;
48423;SDS011;34232;42.502;26.014;2022-12-18T03:00:35;2.05;;;1.77;;
48423;SDS011;34232;42.502;26.014;2022-12-18T03:05:41;3.92;;;1.83;;
48423;SDS011;34232;42.502;26.014;2022-12-18T03:08:17;3.83;;;2.30;;
48423;SDS011;34232;42.502;26.014;2022-12-18T03:10:49;2.88;;;1.77;;
48423;SDS011;34232;42.502;26.014;2022-12-18T03:16:25;3.50;;;2.22;;
48423;SDS011;34232;42.502;26.014;2022-12-18T03:18:58;4.63;;;2.25;;
48423;SDS011;34232;42.502;26.014;2022-12-18T03:21:38;1.70;;;1.60;;
48423;SDS011;34232;42.502;26.014;2022-12-18T03:24:09;2.20;;;1.23;;
48423;SDS011;34232;42.502;26.014;2022-12-18T03:29:09;2.05;;;1.60;;
48423;SDS011;34232;42.502;26.014;2022-12-18T03:31:40;1.70;;;1.35;;
48423;SDS011;34232;42.502;26.014;2022-12-18T03:34:15;8.10;;;3.10;;
48423;SDS011;34232;42.502;26.014;2022-12-18T03:36:44;2.85;;;2.05;;
48423;SDS011;34232;42.502;26.014;2022-12-18T03:39:10;4.90;;;2.13;;
48423;SDS011;34232;42.502;26.014;2022-12-18T03:47:09;2.13;;;1.85;;
48423;SDS011;34232;42.502;26.014;2022-12-18T03:55:07;2.40;;;1.73;;
48423;SDS011;34232;42.502;26.014;2022-12-18T03:57:35;3.22;;;2.05;;
48423;SDS011;34232;42.502;26.014;2022-12-18T04:00:08;2.35;;;1.88;;
48423;SDS011;34232;42.502;26.014;2022-12-18T04:02:37;2.95;;;2.22;;
48423;SDS011;34232;42.502;26.014;2022-12-18T04:05:07;2.53;;;1.52;;
48423;SDS011;34232;42.502;26.014;2022-12-18T04:07:35;1.77;;;1.65;;
48423;SDS011;34232;42.502;26.014;2022-12-18T04:10:02;2.65;;;1.42;;
48423;SDS011;34232;42.502;26.014;2022-12-18T04:12:29;2.95;;;1.50;;
48423;SDS011;34232;42.502;26.014;2022-12-18T04:14:55;2.50;;;2.03;;
48423;SDS011;34232;42.502;26.014;2022-12-18T04:17:21;5.97;;;3.53;;
48423;SDS011;34232;42.502;26.014;2022-12-18T04:19:49;5.72;;;2.88;;
48423;SDS011;34232;42.502;26.014;2022-12-18T04:22:15;8.03;;;3.20;;
48423;SDS011;34232;42.502;26.014;2022-12-18T04:24:40;3.53;;;2.47;;
48423;SDS011;34232;42.502;26.014;2022-12-18T04:27:06;4.43;;;3.03;;
48423;SDS011;34232;42.502;26.014;2022-12-18T04:29:31;5.20;;;3.07;;
48423;SDS011;34232;42.502;26.014;2022-12-18T04:31:57;3.73;;;2.50;;
48423;SDS011;34232;42.502;26.014;2022-12-18T04:34:22;3.47;;;2.60;;
48423;SDS011;34232;42.502;26.014;2022-12-18T04:36:48;2.60;;;1.70;;
48423;SDS011;34232;42.502;26.014;2022-12-18T04:39:13;2.37;;;1.80;;
48423;SDS011;34232;42.502;26.014;2022-12-18T04:41:39;1.85;;;1.30;;
48423;SDS011;34232;42.502;26.014;2022-12-18T04:44:06;1.27;;;0.70;;
48423;SDS011;34232;42.502;26.014;2022-12-18T04:46:31;4.73;;;1.80;;
48423;SDS011;34232;42.502;26.014;2022-12-18T04:48:57;3.73;;;1.53;;
48423;SDS011;34232;42.502;26.014;2022-12-18T04:51:22;4.30;;;2.30;;
48423;SDS011;34232;42.502;26.014;2022-12-18T04:53:48;13.73;;;4.87;;
48423;SDS011;34232;42.502;26.014;2022-12-18T04:56:14;11.80;;;3.90;;
48423;SDS011;34232;42.502;26.014;2022-12-18T05:01:07;23.65;;;13.52;;
48423;SDS011;34232;42.502;26.014;2022-12-18T05:03:33;9.52;;;6.15;;
48423;SDS011;34232;42.502;26.014;2022-12-18T05:05:59;3.25;;;2.22;;
48423;SDS011;34232;42.502;26.014;2022-12-18T05:08:25;3.17;;;1.60;;
48423;SDS011;34232;42.502;26.014;2022-12-18T05:11:00;3.40;;;2.73;;
48423;SDS011;34232;42.502;26.014;2022-12-18T05:13:31;4.22;;;2.78;;
48423;SDS011;34232;42.502;26.014;2022-12-18T05:15:57;3.33;;;2.78;;
48423;SDS011;34232;42.502;26.014;2022-12-18T05:18:23;12.00;;;6.30;;
48423;SDS011;34232;42.502;26.014;2022-12-18T05:20:52;8.90;;;7.93;;
48423;SDS011;34232;42.502;26.014;2022-12-18T05:23:19;2.97;;;2.67;;
48423;SDS011;34232;42.502;26.014;2022-12-18T05:25:50;2.17;;;1.50;;
48423;SDS011;34232;42.502;26.014;2022-12-18T05:28:17;1.52;;;1.23;;
48423;SDS011;34232;42.502;26.014;2022-12-18T05:30:42;4.90;;;2.73;;
48423;SDS011;34232;42.502;26.014;2022-12-18T05:33:09;2.88;;;1.67;;
48423;SDS011;34232;42.502;26.014;2022-12-18T05:35:35;3.80;;;3.10;;
48423;SDS011;34232;42.502;26.014;2022-12-18T05:38:00;3.30;;;2.43;;
48423;SDS011;34232;42.502;26.014;2022-12-18T05:40:25;2.67;;;2.47;;
48423;SDS011;34232;42.502;26.014;2022-12-18T05:42:51;10.93;;;7.57;;
48423;SDS011;34232;42.502;26.014;2022-12-18T05:45:16;4.47;;;4.07;;
48423;SDS011;34232;42.502;26.014;2022-12-18T05:47:42;3.13;;;2.87;;
48423;SDS011;34232;42.502;26.014;2022-12-18T05:50:07;4.17;;;3.30;;
48423;SDS011;34232;42.502;26.014;2022-12-18T05:52:33;2.80;;;2.53;;
48423;SDS011;34232;42.502;26.014;2022-12-18T05:54:58;2.10;;;1.90;;
48423;SDS011;34232;42.502;26.014;2022-12-18T05:57:24;2.47;;;1.83;;
48423;SDS011;34232;42.502;26.014;2022-12-18T05:59:49;7.83;;;4.10;;
48423;SDS011;34232;42.502;26.014;2022-12-18T06:02:14;2.40;;;1.63;;
48423;SDS011;34232;42.502;26.014;2022-12-18T06:04:40;3.67;;;1.60;;
48423;SDS011;34232;42.502;26.014;2022-12-18T06:07:05;2.43;;;1.77;;
48423;SDS011;34232;42.502;26.014;2022-12-18T06:09:31;2.57;;;1.77;;
48423;SDS011;34232;42.502;26.014;2022-12-18T06:11:57;2.13;;;1.20;;
48423;SDS011;34232;42.502;26.014;2022-12-18T06:14:22;4.13;;;1.70;;
48423;SDS011;34232;42.502;26.014;2022-12-18T06:16:49;2.00;;;1.10;;
48423;SDS011;34232;42.502;26.014;2022-12-18T06:19:16;5.75;;;3.78;;
48423;SDS011;34232;42.502;26.014;2022-12-18T06:21:42;8.23;;;7.43;;
48423;SDS011;34232;42.502;26.014;2022-12-18T06:24:07;20.20;;;18.30;;
48423;SDS011;34232;42.502;26.014;2022-12-18T06:26:33;9.23;;;8.30;;
48423;SDS011;34232;42.502;26.014;2022-12-18T06:28:58;10.27;;;9.23;;
48423;SDS011;34232;42.502;26.014;2022-12-18T06:31:24;21.27;;;18.47;;
48423;SDS011;34232;42.502;26.014;2022-12-18T06:33:50;9.63;;;8.77;;
48423;SDS011;34232;42.502;26.014;2022-12-18T06:36:16;5.83;;;5.43;;
48423;SDS011;34232;42.502;26.014;2022-12-18T06:38:42;6.53;;;4.17;;
48423;SDS011;34232;42.502;26.014;2022-12-18T06:41:15;2.20;;;2.00;;
48423;SDS011;34232;42.502;26.014;2022-12-18T06:43:42;2.88;;;2.10;;
48423;SDS011;34232;42.502;26.014;2022-12-18T06:46:08;2.55;;;2.38;;
48423;SDS011;34232;42.502;26.014;2022-12-18T06:48:34;3.73;;;3.33;;
48423;SDS011;34232;42.502;26.014;2022-12-18T06:51:00;2.03;;;1.77;;
48423;SDS011;34232;42.502;26.014;2022-12-18T06:53:26;4.03;;;2.55;;
48423;SDS011;34232;42.502;26.014;2022-12-18T06:55:51;3.30;;;3.00;;
48423;SDS011;34232;42.502;26.014;2022-12-18T06:58:17;4.53;;;3.90;;
48423;SDS011;34232;42.502;26.014;2022-12-18T07:00:42;7.73;;;5.87;;
48423;SDS011;34232;42.502;26.014;2022-12-18T07:03:08;4.90;;;3.87;;
48423;SDS011;34232;42.502;26.014;2022-12-18T07:05:33;11.33;;;9.07;;
48423;SDS011;34232;42.502;26.014;2022-12-18T07:07:59;8.63;;;7.60;;
48423;SDS011;34232;42.502;26.014;2022-12-18T07:10:27;45.08;;;29.70;;
48423;SDS011;34232;42.502;26.014;2022-12-18T07:12:52;32.73;;;20.57;;
48423;SDS011;34232;42.502;26.014;2022-12-18T07:15:18;22.80;;;13.93;;
48423;SDS011;34232;42.502;26.014;2022-12-18T07:17:43;31.77;;;18.47;;
48423;SDS011;34232;42.502;26.014;2022-12-18T07:20:09;17.13;;;10.47;;
48423;SDS011;34232;42.502;26.014;2022-12-18T07:22:34;15.13;;;10.03;;
48423;SDS011;34232;42.502;26.014;2022-12-18T07:25:00;16.87;;;11.23;;
48423;SDS011;34232;42.502;26.014;2022-12-18T07:27:25;18.03;;;11.07;;
48423;SDS011;34232;42.502;26.014;2022-12-18T07:29:51;11.37;;;9.50;;
48423;SDS011;34232;42.502;26.014;2022-12-18T07:32:16;13.57;;;10.60;;
48423;SDS011;34232;42.502;26.014;2022-12-18T07:34:41;10.43;;;5.53;;
48423;SDS011;34232;42.502;26.014;2022-12-18T07:37:07;17.07;;;9.23;;
48423;SDS011;34232;42.502;26.014;2022-12-18T07:39:32;15.07;;;8.17;;
48423;SDS011;34232;42.502;26.014;2022-12-18T07:41:58;4.83;;;3.70;;
48423;SDS011;34232;42.502;26.014;2022-12-18T07:44:42;5.35;;;3.70;;
48423;SDS011;34232;42.502;26.014;2022-12-18T07:47:08;11.77;;;7.43;;
48423;SDS011;34232;42.502;26.014;2022-12-18T07:49:33;14.37;;;7.93;;
48423;SDS011;34232;42.502;26.014;2022-12-18T07:51:59;7.03;;;3.97;;
48423;SDS011;34232;42.502;26.014;2022-12-18T07:54:24;32.10;;;13.67;;
48423;SDS011;34232;42.502;26.014;2022-12-18T07:56:50;7.83;;;4.73;;
48423;SDS011;34232;42.502;26.014;2022-12-18T07:59:17;7.70;;;3.60;;
48423;SDS011;34232;42.502;26.014;2022-12-18T08:01:42;9.23;;;5.45;;
48423;SDS011;34232;42.502;26.014;2022-12-18T08:04:08;10.40;;;5.20;;
48423;SDS011;34232;42.502;26.014;2022-12-18T08:06:33;2.50;;;2.00;;
48423;SDS011;34232;42.502;26.014;2022-12-18T08:08:59;5.67;;;3.27;;
48423;SDS011;34232;42.502;26.014;2022-12-18T08:11:25;6.17;;;2.73;;
48423;SDS011;34232;42.502;26.014;2022-12-18T08:13:52;6.55;;;3.17;;
48423;SDS011;34232;42.502;26.014;2022-12-18T08:16:18;83.60;;;34.90;;
48423;SDS011;34232;42.502;26.014;2022-12-18T08:18:44;41.65;;;25.17;;
48423;SDS011;34232;42.502;26.014;2022-12-18T08:23:38;22.35;;;12.90;;
48423;SDS011;34232;42.502;26.014;2022-12-18T08:26:04;20.15;;;12.40;;
48423;SDS011;34232;42.502;26.014;2022-12-18T08:28:30;6.73;;;5.07;;
48423;SDS011;34232;42.502;26.014;2022-12-18T08:30:56;4.27;;;2.50;;
48423;SDS011;34232;42.502;26.014;2022-12-18T08:33:21;6.73;;;2.87;;
48423;SDS011;34232;42.502;26.014;2022-12-18T08:35:47;6.23;;;4.27;;
48423;SDS011;34232;42.502;26.014;2022-12-18T08:38:12;10.67;;;6.27;;
48423;SDS011;34232;42.502;26.014;2022-12-18T08:40:37;27.27;;;15.10;;
48423;SDS011;34232;42.502;26.014;2022-12-18T08:43:07;49.53;;;29.02;;
48423;SDS011;34232;42.502;26.014;2022-12-18T08:45:53;25.17;;;19.83;;
48423;SDS011;34232;42.502;26.014;2022-12-18T08:48:18;14.97;;;10.07;;
48423;SDS011;34232;42.502;26.014;2022-12-18T08:50:52;4.30;;;2.83;;
48423;SDS011;34232;42.502;26.014;2022-12-18T08:53:19;18.23;;;9.25;;
48423;SDS011;34232;42.502;26.014;2022-12-18T08:55:44;24.00;;;13.83;;
48423;SDS011;34232;42.502;26.014;2022-12-18T08:58:09;6.43;;;4.77;;
48423;SDS011;34232;42.502;26.014;2022-12-18T09:00:35;8.70;;;5.70;;
48423;SDS011;34232;42.502;26.014;2022-12-18T09:03:00;8.37;;;6.17;;
48423;SDS011;34232;42.502;26.014;2022-12-18T09:05:26;11.35;;;7.25;;
48423;SDS011;34232;42.502;26.014;2022-12-18T09:07:52;4.07;;;2.53;;
48423;SDS011;34232;42.502;26.014;2022-12-18T09:10:17;9.73;;;6.17;;
48423;SDS011;34232;42.502;26.014;2022-12-18T09:12:43;8.80;;;6.37;;
48423;SDS011;34232;42.502;26.014;2022-12-18T09:15:08;10.60;;;7.67;;
48423;SDS011;34232;42.502;26.014;2022-12-18T09:17:34;24.67;;;17.37;;
48423;SDS011;34232;42.502;26.014;2022-12-18T09:19:59;41.40;;;32.83;;
48423;SDS011;34232;42.502;26.014;2022-12-18T09:22:25;29.00;;;19.57;;
48423;SDS011;34232;42.502;26.014;2022-12-18T09:24:50;22.03;;;13.37;;
48423;SDS011;34232;42.502;26.014;2022-12-18T09:27:15;24.03;;;14.03;;
48423;SDS011;34232;42.502;26.014;2022-12-18T09:29:41;19.57;;;10.83;;
48423;SDS011;34232;42.502;26.014;2022-12-18T09:32:06;21.67;;;11.97;;
48423;SDS011;34232;42.502;26.014;2022-12-18T09:34:31;19.07;;;8.67;;
48423;SDS011;34232;42.502;26.014;2022-12-18T09:36:57;46.93;;;22.23;;
48423;SDS011;34232;42.502;26.014;2022-12-18T09:39:23;34.70;;;20.03;;
48423;SDS011;34232;42.502;26.014;2022-12-18T09:41:55;21.00;;;11.80;;
48423;SDS011;34232;42.502;26.014;2022-12-18T09:44:27;15.73;;;12.27;;
48423;SDS011;34232;42.502;26.014;2022-12-18T09:49:58;46.75;;;22.13;;
48423;SDS011;34232;42.502;26.014;2022-12-18T09:52:47;13.70;;;7.82;;
48423;SDS011;34232;42.502;26.014;2022-12-18T10:01:14;7.05;;;3.95;;
48423;SDS011;34232;42.502;26.014;2022-12-18T10:03:43;3.58;;;1.83;;
48423;SDS011;34232;42.502;26.014;2022-12-18T10:06:11;8.87;;;4.07;;
48423;SDS011;34232;42.502;26.014;2022-12-18T10:24:45;9.90;;;6.45;;
48423;SDS011;34232;42.502;26.014;2022-12-18T10:27:40;3.83;;;2.13;;
48423;SDS011;34232;42.502;26.014;2022-12-18T10:30:12;2.97;;;1.50;;
48423;SDS011;34232;42.502;26.014;2022-12-18T10:32:42;3.45;;;2.42;;
48423;SDS011;34232;42.502;26.014;2022-12-18T10:35:11;6.97;;;2.90;;
48423;SDS011;34232;42.502;26.014;2022-12-18T10:40:30;2.42;;;1.77;;
48423;SDS011;34232;42.502;26.014;2022-12-18T10:43:10;4.63;;;2.70;;
48423;SDS011;34232;42.502;26.014;2022-12-18T10:45:37;19.00;;;3.17;;
48423;SDS011;34232;42.502;26.014;2022-12-18T10:48:04;8.10;;;3.40;;
48423;SDS011;34232;42.502;26.014;2022-12-18T10:50:42;46.38;;;15.85;;
48423;SDS011;34232;42.502;26.014;2022-12-18T10:53:13;36.65;;;18.88;;
48423;SDS011;34232;42.502;26.014;2022-12-18T10:55:45;21.73;;;15.60;;
48423;SDS011;34232;42.502;26.014;2022-12-18T11:03:30;26.95;;;18.50;;
48423;SDS011;34232;42.502;26.014;2022-12-18T11:06:02;25.38;;;15.18;;
48423;SDS011;34232;42.502;26.014;2022-12-18T11:08:32;18.85;;;12.30;;
48423;SDS011;34232;42.502;26.014;2022-12-18T11:10:58;14.17;;;10.97;;
48423;SDS011;34232;42.502;26.014;2022-12-18T11:13:24;16.57;;;10.07;;
48423;SDS011;34232;42.502;26.014;2022-12-18T11:15:52;15.35;;;9.48;;
48423;SDS011;34232;42.502;26.014;2022-12-18T11:18:30;18.17;;;11.00;;
48423;SDS011;34232;42.502;26.014;2022-12-18T11:21:11;17.65;;;11.20;;
48423;SDS011;34232;42.502;26.014;2022-12-18T11:23:43;9.93;;;5.05;;
48423;SDS011;34232;42.502;26.014;2022-12-18T11:26:19;7.50;;;4.35;;
48423;SDS011;34232;42.502;26.014;2022-12-18T11:28:47;3.30;;;2.72;;
48423;SDS011;34232;42.502;26.014;2022-12-18T11:36:43;3.95;;;2.53;;
48423;SDS011;34232;42.502;26.014;2022-12-18T11:39:34;4.97;;;2.05;;
48423;SDS011;34232;42.502;26.014;2022-12-18T11:42:04;6.47;;;2.25;;
48423;SDS011;34232;42.502;26.014;2022-12-18T11:47:45;5.22;;;3.60;;
48423;SDS011;34232;42.502;26.014;2022-12-18T11:50:14;6.20;;;2.97;;
48423;SDS011;34232;42.502;26.014;2022-12-18T11:52:42;3.78;;;2.75;;
48423;SDS011;34232;42.502;26.014;2022-12-18T11:55:12;6.07;;;1.97;;
48423;SDS011;34232;42.502;26.014;2022-12-18T12:00:18;9.43;;;4.07;;
48423;SDS011;34232;42.502;26.014;2022-12-18T12:05:28;4.22;;;2.65;;
48423;SDS011;34232;42.502;26.014;2022-12-18T12:14:01;7.28;;;3.97;;
48423;SDS011;34232;42.502;26.014;2022-12-18T12:16:42;6.13;;;2.80;;
48423;SDS011;34232;42.502;26.014;2022-12-18T12:22:13;5.53;;;3.33;;
48423;SDS011;34232;42.502;26.014;2022-12-18T12:38:19;7.30;;;4.22;;
48423;SDS011;34232;42.502;26.014;2022-12-18T12:40:49;8.93;;;4.20;;
48423;SDS011;34232;42.502;26.014;2022-12-18T12:45:53;72.95;;;26.50;;
48423;SDS011;34232;42.502;26.014;2022-12-18T12:51:02;69.47;;;24.00;;
48423;SDS011;34232;42.502;26.014;2022-12-18T12:53:35;46.42;;;17.83;;
48423;SDS011;34232;42.502;26.014;2022-12-18T12:56:02;19.10;;;7.90;;
48423;SDS011;34232;42.502;26.014;2022-12-18T13:01:31;60.13;;;35.83;;
48423;SDS011;34232;42.502;26.014;2022-12-18T13:04:21;25.73;;;17.08;;
48423;SDS011;34232;42.502;26.014;2022-12-18T13:15:28;6.10;;;4.15;;
48423;SDS011;34232;42.502;26.014;2022-12-18T13:25:50;47.67;;;18.30;;
48423;SDS011;34232;42.502;26.014;2022-12-18T13:28:17;26.40;;;13.43;;
48423;SDS011;34232;42.502;26.014;2022-12-18T13:30:51;20.17;;;11.07;;
48423;SDS011;34232;42.502;26.014;2022-12-18T13:43:43;13.25;;;8.93;;
48423;SDS011;34232;42.502;26.014;2022-12-18T13:51:39;5.32;;;3.35;;
48423;SDS011;34232;42.502;26.014;2022-12-18T13:56:43;9.43;;;4.38;;
48423;SDS011;34232;42.502;26.014;2022-12-18T13:59:21;9.13;;;4.90;;
48423;SDS011;34232;42.502;26.014;2022-12-18T14:01:56;10.27;;;4.57;;
48423;SDS011;34232;42.502;26.014;2022-12-18T14:04:29;9.07;;;4.97;;
48423;SDS011;34232;42.502;26.014;2022-12-18T14:07:04;8.32;;;6.28;;
48423;SDS011;34232;42.502;26.014;2022-12-18T14:09:36;8.93;;;5.38;;
48423;SDS011;34232;42.502;26.014;2022-12-18T14:12:05;9.25;;;4.43;;
48423;SDS011;34232;42.502;26.014;2022-12-18T14:14:50;11.20;;;4.93;;
48423;SDS011;34232;42.502;26.014;2022-12-18T14:17:18;10.75;;;5.60;;
48423;SDS011;34232;42.502;26.014;2022-12-18T14:19:47;8.32;;;4.45;;
48423;SDS011;34232;42.502;26.014;2022-12-18T14:22:16;10.85;;;5.63;;
48423;SDS011;34232;42.502;26.014;2022-12-18T14:24:44;11.90;;;6.22;;
48423;SDS011;34232;42.502;26.014;2022-12-18T14:27:27;14.80;;;5.38;;
48423;SDS011;34232;42.502;26.014;2022-12-18T14:29:52;13.85;;;7.13;;
48423;SDS011;34232;42.502;26.014;2022-12-18T14:32:18;13.82;;;6.53;;
48423;SDS011;34232;42.502;26.014;2022-12-18T14:37:14;11.55;;;5.90;;
48423;SDS011;34232;42.502;26.014;2022-12-18T14:39:51;11.10;;;5.93;;
48423;SDS011;34232;42.502;26.014;2022-12-18T14:42:22;9.60;;;5.70;;
48423;SDS011;34232;42.502;26.014;2022-12-18T14:44:47;16.38;;;7.15;;
48423;SDS011;34232;42.502;26.014;2022-12-18T14:47:16;14.33;;;6.80;;
48423;SDS011;34232;42.502;26.014;2022-12-18T14:49:42;12.68;;;6.63;;
48423;SDS011;34232;42.502;26.014;2022-12-18T14:52:20;13.13;;;7.82;;
48423;SDS011;34232;42.502;26.014;2022-12-18T14:54:51;17.50;;;9.50;;
48423;SDS011;34232;42.502;26.014;2022-12-18T14:59:50;16.42;;;8.15;;
48423;SDS011;34232;42.502;26.014;2022-12-18T15:05:04;16.52;;;9.10;;
48423;SDS011;34232;42.502;26.014;2022-12-18T15:07:42;16.30;;;9.00;;
48423;SDS011;34232;42.502;26.014;2022-12-18T15:10:13;20.45;;;8.95;;
48423;SDS011;34232;42.502;26.014;2022-12-18T15:18:05;15.63;;;8.93;;
48423;SDS011;34232;42.502;26.014;2022-12-18T15:20:51;18.08;;;8.50;;
48423;SDS011;34232;42.502;26.014;2022-12-18T15:23:26;18.92;;;8.40;;
48423;SDS011;34232;42.502;26.014;2022-12-18T15:25:56;16.00;;;7.75;;
48423;SDS011;34232;42.502;26.014;2022-12-18T15:36:24;17.02;;;7.60;;
48423;SDS011;34232;42.502;26.014;2022-12-18T15:38:51;17.80;;;8.63;;
48423;SDS011;34232;42.502;26.014;2022-12-18T15:41:18;17.27;;;8.95;;
48423;SDS011;34232;42.502;26.014;2022-12-18T15:43:45;15.90;;;8.98;;
48423;SDS011;34232;42.502;26.014;2022-12-18T15:46:13;20.42;;;8.70;;
48423;SDS011;34232;42.502;26.014;2022-12-18T15:48:41;18.15;;;7.22;;
48423;SDS011;34232;42.502;26.014;2022-12-18T15:51:26;14.90;;;8.00;;
48423;SDS011;34232;42.502;26.014;2022-12-18T15:53:57;13.60;;;7.38;;
48423;SDS011;34232;42.502;26.014;2022-12-18T15:56:24;14.32;;;8.65;;
48423;SDS011;34232;42.502;26.014;2022-12-18T15:59:12;14.18;;;6.95;;
48423;SDS011;34232;42.502;26.014;2022-12-18T16:01:43;13.73;;;7.32;;
48423;SDS011;34232;42.502;26.014;2022-12-18T16:04:11;16.48;;;8.45;;
48423;SDS011;34232;42.502;26.014;2022-12-18T16:06:38;13.98;;;7.55;;
48423;SDS011;34232;42.502;26.014;2022-12-18T16:09:04;19.13;;;7.80;;
48423;SDS011;34232;42.502;26.014;2022-12-18T16:11:30;15.88;;;7.28;;
48423;SDS011;34232;42.502;26.014;2022-12-18T16:14:06;16.73;;;8.02;;
48423;SDS011;34232;42.502;26.014;2022-12-18T16:16:39;16.38;;;7.25;;
48423;SDS011;34232;42.502;26.014;2022-12-18T16:19:05;16.90;;;8.48;;
48423;SDS011;34232;42.502;26.014;2022-12-18T16:21:30;14.93;;;7.70;;
48423;SDS011;34232;42.502;26.014;2022-12-18T16:23:56;15.65;;;8.80;;
48423;SDS011;34232;42.502;26.014;2022-12-18T16:26:21;16.80;;;9.63;;
48423;SDS011;34232;42.502;26.014;2022-12-18T16:28:46;15.52;;;7.97;;
48423;SDS011;34232;42.502;26.014;2022-12-18T16:31:12;20.73;;;8.37;;
48423;SDS011;34232;42.502;26.014;2022-12-18T16:33:37;16.50;;;8.17;;
48423;SDS011;34232;42.502;26.014;2022-12-18T16:36:03;16.07;;;8.13;;
48423;SDS011;34232;42.502;26.014;2022-12-18T16:38:28;18.17;;;8.80;;
48423;SDS011;34232;42.502;26.014;2022-12-18T16:40:54;18.65;;;8.75;;
48423;SDS011;34232;42.502;26.014;2022-12-18T16:43:38;17.50;;;8.60;;
48423;SDS011;34232;42.502;26.014;2022-12-18T16:46:03;16.48;;;9.65;;
48423;SDS011;34232;42.502;26.014;2022-12-18T16:48:29;18.02;;;8.02;;
48423;SDS011;34232;42.502;26.014;2022-12-18T16:51:03;18.63;;;8.35;;
48423;SDS011;34232;42.502;26.014;2022-12-18T16:53:30;17.90;;;8.27;;
48423;SDS011;34232;42.502;26.014;2022-12-18T16:55:57;15.00;;;7.63;;
48423;SDS011;34232;42.502;26.014;2022-12-18T16:58:22;18.13;;;8.70;;
48423;SDS011;34232;42.502;26.014;2022-12-18T17:00:48;20.20;;;9.65;;
48423;SDS011;34232;42.502;26.014;2022-12-18T17:03:13;18.97;;;9.87;;
48423;SDS011;34232;42.502;26.014;2022-12-18T17:05:39;18.07;;;8.87;;
48423;SDS011;34232;42.502;26.014;2022-12-18T17:08:04;19.47;;;9.83;;
48423;SDS011;34232;42.502;26.014;2022-12-18T17:10:30;20.73;;;10.73;;
48423;SDS011;34232;42.502;26.014;2022-12-18T17:12:55;17.40;;;8.83;;
48423;SDS011;34232;42.502;26.014;2022-12-18T17:15:21;24.30;;;9.00;;
48423;SDS011;34232;42.502;26.014;2022-12-18T17:17:46;24.25;;;9.75;;
48423;SDS011;34232;42.502;26.014;2022-12-18T17:20:11;21.15;;;9.85;;
48423;SDS011;34232;42.502;26.014;2022-12-18T17:22:37;18.20;;;9.43;;
48423;SDS011;34232;42.502;26.014;2022-12-18T17:25:02;23.80;;;11.48;;
48423;SDS011;34232;42.502;26.014;2022-12-18T17:27:28;26.87;;;11.43;;
48423;SDS011;34232;42.502;26.014;2022-12-18T17:29:53;22.93;;;10.57;;
48423;SDS011;34232;42.502;26.014;2022-12-18T17:32:22;21.40;;;10.23;;
48423;SDS011;34232;42.502;26.014;2022-12-18T17:34:47;21.48;;;10.07;;
48423;SDS011;34232;42.502;26.014;2022-12-18T17:37:13;19.55;;;9.45;;
48423;SDS011;34232;42.502;26.014;2022-12-18T17:39:39;20.38;;;10.52;;
48423;SDS011;34232;42.502;26.014;2022-12-18T17:42:05;19.52;;;9.77;;